createdAt,value
2022-12-29T00:00:53.246Z,2.45
2022-12-29T00:05:57.267Z,1.98
2022-12-29T00:10:59.310Z,1.88
2022-12-29T00:16:01.364Z,1.50
2022-12-29T00:21:22.000Z,1.40
2022-12-29T00:26:42.637Z,1.10
2022-12-29T00:32:03.473Z,1.33
2022-12-29T00:37:05.930Z,1.20
2022-12-29T00:42:39.539Z,1.13
2022-12-29T00:52:43.465Z,1.50
2022-12-29T00:57:45.559Z,1.90
2022-12-29T01:02:47.808Z,1.85
2022-12-29T01:07:49.909Z,2.20
2022-12-29T01:12:52.414Z,2.10
2022-12-29T01:17:54.532Z,2.15
2022-12-29T01:22:56.592Z,1.83
2022-12-29T01:27:58.729Z,1.60
2022-12-29T01:33:02.040Z,1.17
2022-12-29T01:38:04.189Z,1.20
2022-12-29T01:43:11.603Z,1.00
2022-12-29T01:48:14.775Z,0.90
2022-12-29T01:53:21.841Z,1.00
2022-12-29T01:58:27.999Z,1.02
2022-12-29T02:03:33.408Z,1.10
2022-12-29T02:08:36.193Z,0.77
2022-12-29T02:13:38.264Z,1.30
2022-12-29T02:19:02.139Z,1.10
2022-12-29T02:24:32.547Z,0.95
2022-12-29T02:29:55.377Z,1.00
2022-12-29T02:35:12.992Z,1.10
2022-12-29T02:40:26.253Z,1.00
2022-12-29T02:45:46.420Z,0.88
2022-12-29T02:50:55.335Z,0.70
2022-12-29T02:55:58.492Z,0.93
2022-12-29T03:02:17.396Z,0.93
2022-12-29T03:07:40.764Z,0.90
2022-12-29T03:13:16.262Z,1.05
2022-12-29T03:18:25.936Z,0.95
2022-12-29T03:23:30.326Z,1.05
2022-12-29T03:28:38.781Z,1.20
2022-12-29T03:33:43.392Z,1.08
2022-12-29T03:38:51.388Z,0.98
2022-12-29T03:43:53.580Z,0.88
2022-12-29T03:48:55.748Z,1.15
2022-12-29T03:53:57.942Z,1.00
2022-12-29T03:59:00.443Z,0.93
2022-12-29T04:04:14.582Z,0.88
2022-12-29T04:09:16.905Z,1.42
2022-12-29T04:14:22.015Z,0.88
2022-12-29T04:19:24.190Z,1.10
2022-12-29T04:24:26.412Z,1.10
2022-12-29T04:29:28.831Z,1.40
2022-12-29T04:34:40.700Z,1.40
2022-12-29T04:39:42.791Z,1.55
2022-12-29T04:44:45.454Z,2.70
2022-12-29T04:50:08.303Z,1.38
2022-12-29T04:55:27.064Z,1.63
2022-12-29T05:00:29.415Z,1.45
2022-12-29T05:05:31.812Z,1.33
2022-12-29T05:10:35.084Z,1.50
2022-12-29T05:15:50.380Z,1.45
2022-12-29T05:20:52.678Z,1.50
2022-12-29T05:25:56.614Z,1.20
2022-12-29T05:31:24.893Z,1.40
2022-12-29T05:36:30.636Z,1.38
2022-12-29T05:41:38.278Z,1.52
2022-12-29T05:46:49.358Z,1.20
2022-12-29T05:51:51.545Z,1.17
2022-12-29T05:56:53.800Z,1.52
2022-12-29T06:01:56.746Z,1.10
2022-12-29T06:06:59.071Z,1.08
2022-12-29T06:12:17.138Z,1.25
2022-12-29T06:17:22.239Z,1.45
2022-12-29T06:22:26.005Z,0.63
2022-12-29T06:27:29.407Z,1.60
2022-12-29T06:32:31.607Z,1.27
2022-12-29T06:37:39.297Z,1.02
2022-12-29T06:42:42.367Z,0.98
2022-12-29T06:48:03.113Z,1.63
2022-12-29T06:53:05.490Z,1.10
2022-12-29T06:58:07.493Z,1.80
2022-12-29T07:03:09.629Z,1.40
2022-12-29T07:08:11.731Z,1.52
2022-12-29T07:13:13.852Z,1.50
2022-12-29T07:18:15.890Z,1.27
2022-12-29T07:23:19.362Z,1.00
2022-12-29T07:28:21.411Z,1.45
2022-12-29T07:33:23.529Z,1.60
2022-12-29T07:38:25.676Z,1.40
2022-12-29T07:43:28.269Z,1.58
2022-12-29T07:48:53.490Z,1.42
2022-12-29T07:53:55.633Z,2.10
2022-12-29T07:58:57.626Z,1.40
2022-12-29T08:03:59.830Z,1.67
2022-12-29T08:09:09.817Z,1.77
2022-12-29T08:14:14.394Z,1.60
2022-12-29T08:19:16.451Z,1.90
2022-12-29T08:24:18.523Z,2.55
2022-12-29T08:29:22.336Z,1.90
2022-12-29T08:34:24.517Z,1.98
2022-12-29T08:39:26.712Z,2.00
2022-12-29T08:44:29.048Z,1.75
2022-12-29T08:49:31.139Z,1.67
2022-12-29T08:54:33.155Z,1.80
2022-12-29T08:59:35.569Z,1.98
2022-12-29T09:04:38.713Z,1.85
2022-12-29T09:09:40.801Z,1.73
2022-12-29T09:14:43.786Z,1.50
2022-12-29T09:19:45.960Z,2.03
2022-12-29T09:24:49.455Z,1.95
2022-12-29T09:29:51.491Z,1.80
2022-12-29T09:34:53.533Z,1.90
2022-12-29T09:39:55.716Z,1.90
2022-12-29T09:45:06.808Z,1.85
2022-12-29T09:50:23.714Z,2.17
2022-12-29T09:55:35.299Z,2.05
2022-12-29T10:00:51.226Z,1.80
2022-12-29T10:06:08.855Z,2.20
2022-12-29T10:11:19.809Z,2.47
2022-12-29T10:16:35.479Z,2.42
2022-12-29T10:22:00.555Z,2.40
2022-12-29T10:27:02.863Z,2.25
2022-12-29T10:32:27.028Z,2.30
2022-12-29T10:37:57.486Z,2.47
2022-12-29T10:43:01.006Z,2.85
2022-12-29T10:48:06.051Z,2.70
2022-12-29T10:53:08.084Z,2.90
2022-12-29T10:58:13.924Z,2.75
2022-12-29T11:03:37.096Z,3.17
2022-12-29T11:08:45.288Z,2.70
2022-12-29T11:13:52.264Z,2.72
2022-12-29T11:18:54.296Z,3.53
2022-12-29T11:24:04.895Z,3.38
2022-12-29T11:29:26.428Z,2.53
2022-12-29T11:34:34.836Z,2.45
2022-12-29T11:39:46.705Z,3.33
2022-12-29T11:44:51.493Z,2.78
2022-12-29T11:49:58.141Z,2.88
2022-12-29T11:55:01.870Z,2.15
2022-12-29T12:00:17.232Z,2.42
2022-12-29T12:05:28.330Z,2.90
2022-12-29T12:15:45.329Z,2.47
2022-12-29T12:21:02.066Z,2.78
2022-12-29T12:26:14.627Z,2.72
2022-12-29T12:31:25.447Z,3.00
2022-12-29T12:37:07.969Z,3.10
2022-12-29T12:42:44.374Z,3.33
2022-12-29T12:48:07.241Z,2.65
2022-12-29T12:53:30.863Z,2.70
2022-12-29T12:59:05.549Z,2.70
2022-12-29T13:04:31.624Z,2.30
2022-12-29T13:09:51.951Z,2.08
2022-12-29T13:15:02.821Z,1.85
2022-12-29T13:20:28.517Z,1.90
2022-12-29T13:25:51.264Z,1.73
2022-12-29T13:31:40.038Z,1.85
2022-12-29T13:36:49.159Z,2.42
2022-12-29T13:41:56.250Z,2.30
2022-12-29T13:47:02.939Z,1.98
2022-12-29T13:52:16.211Z,1.40
2022-12-29T13:57:38.547Z,1.70
2022-12-29T14:02:40.871Z,2.25
2022-12-29T14:07:43.082Z,1.63
2022-12-29T14:12:45.281Z,2.08
2022-12-29T14:18:07.012Z,2.30
2022-12-29T14:23:08.989Z,1.77
2022-12-29T14:28:24.345Z,2.30
2022-12-29T14:33:29.513Z,2.10
2022-12-29T14:38:31.923Z,1.55
2022-12-29T14:43:34.021Z,1.52
2022-12-29T14:48:43.796Z,1.90
2022-12-29T14:53:50.302Z,1.75
2022-12-29T14:59:02.801Z,1.65
2022-12-29T15:04:15.785Z,1.20
2022-12-29T15:09:30.645Z,1.60
2022-12-29T15:14:37.423Z,1.50
2022-12-29T15:19:39.649Z,1.42
2022-12-29T15:24:45.162Z,1.33
2022-12-29T15:29:47.616Z,1.30
2022-12-29T15:35:02.251Z,1.27
2022-12-29T15:40:04.858Z,0.82
2022-12-29T15:45:11.556Z,1.20
2022-12-29T15:50:28.101Z,1.38
2022-12-29T15:55:35.370Z,1.50
2022-12-29T16:00:38.530Z,1.08
2022-12-29T16:05:41.492Z,1.17
2022-12-29T16:10:44.303Z,1.10
2022-12-29T16:15:48.044Z,1.50
2022-12-29T16:20:50.322Z,1.10
2022-12-29T16:25:55.558Z,1.15
2022-12-29T16:31:05.078Z,1.13
2022-12-29T16:36:23.340Z,1.23
2022-12-29T16:41:33.088Z,1.40
2022-12-29T16:46:35.350Z,1.20
2022-12-29T16:51:38.088Z,1.60
2022-12-29T16:56:45.485Z,1.50
2022-12-29T17:01:47.669Z,2.08
2022-12-29T17:06:50.016Z,1.58
2022-12-29T17:12:08.770Z,1.80
2022-12-29T17:17:22.495Z,1.63
2022-12-29T17:22:26.578Z,1.52
2022-12-29T17:27:37.669Z,1.92
2022-12-29T17:32:41.452Z,2.08
2022-12-29T17:37:44.031Z,2.00
2022-12-29T17:42:52.531Z,2.13
2022-12-29T17:47:55.137Z,2.00
2022-12-29T17:53:11.278Z,3.05
2022-12-29T17:58:25.625Z,2.75
2022-12-29T18:03:50.674Z,2.22
2022-12-29T18:08:53.092Z,2.10
2022-12-29T18:13:55.513Z,3.08
2022-12-29T18:18:57.620Z,2.72
2022-12-29T18:23:59.630Z,2.50
2022-12-29T18:29:01.928Z,2.35
2022-12-29T18:34:13.360Z,2.58
2022-12-29T18:39:15.520Z,3.10
2022-12-29T18:44:17.740Z,2.70
2022-12-29T18:49:19.918Z,3.38
2022-12-29T18:54:32.607Z,2.95
2022-12-29T18:59:34.608Z,3.05
2022-12-29T19:04:36.705Z,4.32
2022-12-29T19:09:38.769Z,2.72
2022-12-29T19:14:40.861Z,2.83
2022-12-29T19:19:43.004Z,2.60
2022-12-29T19:24:45.101Z,3.10
2022-12-29T19:30:13.444Z,2.72
2022-12-29T19:35:40.860Z,3.10
2022-12-29T19:40:48.503Z,3.35
2022-12-29T19:45:52.390Z,3.42
2022-12-29T19:50:54.407Z,11.45
2022-12-29T19:55:56.557Z,3.35
2022-12-29T20:01:17.709Z,2.70
2022-12-29T20:06:20.632Z,2.75
2022-12-29T20:11:22.786Z,3.28
2022-12-29T20:16:25.104Z,2.47
2022-12-29T20:21:27.245Z,2.67
2022-12-29T20:26:30.252Z,3.05
2022-12-29T20:31:36.259Z,2.25
2022-12-29T20:36:45.363Z,2.97
2022-12-29T20:41:48.016Z,2.83
2022-12-29T20:46:50.148Z,3.80
2022-12-29T20:52:07.835Z,4.10
2022-12-29T20:57:09.945Z,2.95
2022-12-29T21:02:20.724Z,2.22
2022-12-29T21:07:23.061Z,2.72
2022-12-29T21:12:25.114Z,2.50
2022-12-29T21:17:27.666Z,2.58
2022-12-29T21:22:29.872Z,3.00
2022-12-29T21:27:33.342Z,2.60
2022-12-29T21:32:35.514Z,2.45
2022-12-29T21:37:37.683Z,2.97
2022-12-29T21:42:39.691Z,5.88
2022-12-29T21:48:00.463Z,2.20
2022-12-29T21:53:02.471Z,2.50
2022-12-29T21:58:23.286Z,2.67
2022-12-29T22:03:44.161Z,2.17
2022-12-29T22:09:04.870Z,2.70
2022-12-29T22:14:09.788Z,2.60
2022-12-29T22:19:11.899Z,2.70
2022-12-29T22:24:13.980Z,2.42
2022-12-29T22:29:16.038Z,2.50
2022-12-29T22:34:18.064Z,2.95
2022-12-29T22:39:20.128Z,2.35
2022-12-29T22:44:22.471Z,2.30
2022-12-29T22:49:24.614Z,1.92
2022-12-29T22:54:26.862Z,2.55
2022-12-29T22:59:28.914Z,2.40
2022-12-29T23:09:53.143Z,2.08
2022-12-29T23:14:55.267Z,2.53
2022-12-29T23:19:57.473Z,2.95
2022-12-29T23:24:59.748Z,2.30
2022-12-29T23:30:01.925Z,2.38
2022-12-29T23:35:04.387Z,2.10
2022-12-29T23:40:07.071Z,2.05
2022-12-29T23:45:10.859Z,2.05
2022-12-29T23:50:13.030Z,2.22
2022-12-29T23:55:15.062Z,2.08
